sensor_id;sensor_type;location;lat;lon;timestamp;pressure;altitude;pressure_sealevel;temperature;humidity
31225;BME280;17847;31.524;74.366;2023-06-19T00:01:27;97625.84;;;27.85;73.63
31225;BME280;17847;31.524;74.366;2023-06-19T00:03:56;97627.13;;;27.87;73.67
31225;BME280;17847;31.524;74.366;2023-06-19T00:06:26;97627.00;;;27.84;73.42
31225;BME280;17847;31.524;74.366;2023-06-19T00:08:56;97627.31;;;27.82;73.87
31225;BME280;17847;31.524;74.366;2023-06-19T00:11:25;97620.28;;;27.81;74.17
31225;BME280;17847;31.524;74.366;2023-06-19T00:13:55;97619.84;;;27.79;74.42
31225;BME280;17847;31.524;74.366;2023-06-19T00:16:25;97623.00;;;27.81;74.98
31225;BME280;17847;31.524;74.366;2023-06-19T00:18:55;97630.84;;;27.83;74.29
31225;BME280;17847;31.524;74.366;2023-06-19T00:21:25;97630.84;;;27.83;74.55
31225;BME280;17847;31.524;74.366;2023-06-19T00:23:55;97622.19;;;27.81;74.32
31225;BME280;17847;31.524;74.366;2023-06-19T00:26:25;97621.16;;;27.73;74.18
31225;BME280;17847;31.524;74.366;2023-06-19T00:28:55;97623.06;;;27.73;75.06
31225;BME280;17847;31.524;74.366;2023-06-19T00:31:24;97624.78;;;27.77;75.26
31225;BME280;17847;31.524;74.366;2023-06-19T00:33:55;97622.88;;;27.78;75.16
31225;BME280;17847;31.524;74.366;2023-06-19T00:36:25;97621.59;;;27.75;74.83
31225;BME280;17847;31.524;74.366;2023-06-19T00:38:55;97622.41;;;27.76;74.91
31225;BME280;17847;31.524;74.366;2023-06-19T00:41:27;97621.41;;;27.80;75.01
31225;BME280;17847;31.524;74.366;2023-06-19T00:43:59;97621.56;;;27.84;75.02
31225;BME280;17847;31.524;74.366;2023-06-19T00:46:29;97617.13;;;27.79;74.83
31225;BME280;17847;31.524;74.366;2023-06-19T00:48:59;97619.97;;;27.83;74.79
31225;BME280;17847;31.524;74.366;2023-06-19T00:51:28;97612.25;;;27.85;74.73
31225;BME280;17847;31.524;74.366;2023-06-19T00:53:58;97608.09;;;27.87;74.79
31225;BME280;17847;31.524;74.366;2023-06-19T00:56:28;97613.53;;;27.87;74.30
31225;BME280;17847;31.524;74.366;2023-06-19T00:58:58;97615.06;;;27.97;74.86
31225;BME280;17847;31.524;74.366;2023-06-19T01:01:28;97615.06;;;27.97;74.96
31225;BME280;17847;31.524;74.366;2023-06-19T01:03:57;97615.63;;;28.02;75.28
31225;BME280;17847;31.524;74.366;2023-06-19T01:06:32;97609.38;;;28.02;75.28
31225;BME280;17847;31.524;74.366;2023-06-19T01:09:11;97616.00;;;28.01;75.77
31225;BME280;17847;31.524;74.366;2023-06-19T01:11:55;97619.25;;;28.15;75.86
31225;BME280;17847;31.524;74.366;2023-06-19T01:14:36;97621.78;;;28.20;75.33
31225;BME280;17847;31.524;74.366;2023-06-19T01:17:08;97611.75;;;28.12;74.67
31225;BME280;17847;31.524;74.366;2023-06-19T01:19:38;97621.44;;;28.22;74.73
31225;BME280;17847;31.524;74.366;2023-06-19T01:22:08;97619.16;;;28.24;74.71
31225;BME280;17847;31.524;74.366;2023-06-19T01:24:37;97630.94;;;28.36;74.30
31225;BME280;17847;31.524;74.366;2023-06-19T01:27:07;97627.06;;;28.37;73.91
31225;BME280;17847;31.524;74.366;2023-06-19T01:29:37;97629.94;;;28.41;72.91
31225;BME280;17847;31.524;74.366;2023-06-19T01:32:15;97627.13;;;28.29;72.43
31225;BME280;17847;31.524;74.366;2023-06-19T01:34:49;97624.06;;;28.51;73.32
31225;BME280;17847;31.524;74.366;2023-06-19T01:37:22;97630.56;;;28.58;73.44
31225;BME280;17847;31.524;74.366;2023-06-19T01:39:57;97634.97;;;28.72;73.03
31225;BME280;17847;31.524;74.366;2023-06-19T01:42:32;97629.94;;;28.74;72.31
31225;BME280;17847;31.524;74.366;2023-06-19T01:45:03;97631.28;;;28.68;70.54
31225;BME280;17847;31.524;74.366;2023-06-19T01:47:33;97640.31;;;28.59;70.34
31225;BME280;17847;31.524;74.366;2023-06-19T01:50:03;97649.09;;;28.98;71.10
31225;BME280;17847;31.524;74.366;2023-06-19T01:52:33;97657.00;;;29.36;69.67
31225;BME280;17847;31.524;74.366;2023-06-19T01:55:03;97659.63;;;29.57;68.11
31225;BME280;17847;31.524;74.366;2023-06-19T01:57:35;97644.75;;;29.54;68.17
31225;BME280;17847;31.524;74.366;2023-06-19T02:00:06;97647.00;;;29.76;67.35
31225;BME280;17847;31.524;74.366;2023-06-19T02:02:42;97658.25;;;30.39;66.41
31225;BME280;17847;31.524;74.366;2023-06-19T02:05:13;97659.44;;;30.26;65.41
31225;BME280;17847;31.524;74.366;2023-06-19T02:07:42;97663.31;;;30.65;64.91
31225;BME280;17847;31.524;74.366;2023-06-19T02:10:15;97672.06;;;31.14;63.18
31225;BME280;17847;31.524;74.366;2023-06-19T02:12:45;97675.53;;;31.42;61.92
31225;BME280;17847;31.524;74.366;2023-06-19T02:15:15;97675.56;;;31.58;61.96
31225;BME280;17847;31.524;74.366;2023-06-19T02:17:45;97683.13;;;31.80;61.26
31225;BME280;17847;31.524;74.366;2023-06-19T02:20:14;97684.88;;;31.88;61.59
31225;BME280;17847;31.524;74.366;2023-06-19T02:22:44;97681.59;;;31.98;61.25
31225;BME280;17847;31.524;74.366;2023-06-19T02:25:13;97688.25;;;31.66;60.21
31225;BME280;17847;31.524;74.366;2023-06-19T02:27:43;97693.75;;;32.01;60.44
31225;BME280;17847;31.524;74.366;2023-06-19T02:30:12;97698.03;;;31.83;59.70
31225;BME280;17847;31.524;74.366;2023-06-19T02:32:42;97694.94;;;31.84;59.71
31225;BME280;17847;31.524;74.366;2023-06-19T02:35:12;97709.22;;;32.25;58.75
31225;BME280;17847;31.524;74.366;2023-06-19T02:37:43;97717.53;;;32.47;58.46
31225;BME280;17847;31.524;74.366;2023-06-19T02:40:15;97714.38;;;32.65;57.22
31225;BME280;17847;31.524;74.366;2023-06-19T02:42:45;97728.88;;;32.84;57.11
31225;BME280;17847;31.524;74.366;2023-06-19T02:45:14;97732.91;;;33.10;56.94
31225;BME280;17847;31.524;74.366;2023-06-19T02:47:47;97734.72;;;33.44;56.52
31225;BME280;17847;31.524;74.366;2023-06-19T02:50:17;97735.03;;;33.62;54.71
31225;BME280;17847;31.524;74.366;2023-06-19T02:52:46;97729.44;;;33.77;56.48
31225;BME280;17847;31.524;74.366;2023-06-19T02:55:16;97732.94;;;33.55;55.43
31225;BME280;17847;31.524;74.366;2023-06-19T02:57:45;97731.81;;;33.79;55.86
31225;BME280;17847;31.524;74.366;2023-06-19T03:00:15;97734.75;;;34.16;53.17
31225;BME280;17847;31.524;74.366;2023-06-19T03:02:45;97730.38;;;34.38;53.97
31225;BME280;17847;31.524;74.366;2023-06-19T03:05:17;97719.69;;;34.33;54.66
31225;BME280;17847;31.524;74.366;2023-06-19T03:07:46;97736.13;;;34.03;53.38
31225;BME280;17847;31.524;74.366;2023-06-19T03:10:16;97726.38;;;34.35;54.46
31225;BME280;17847;31.524;74.366;2023-06-19T03:12:45;97720.75;;;33.53;55.08
31225;BME280;17847;31.524;74.366;2023-06-19T03:15:15;97722.97;;;33.02;55.12
31225;BME280;17847;31.524;74.366;2023-06-19T03:17:49;97712.91;;;33.09;54.62
31225;BME280;17847;31.524;74.366;2023-06-19T03:20:19;97716.06;;;33.11;56.96
31225;BME280;17847;31.524;74.366;2023-06-19T03:22:57;97720.69;;;33.26;54.35
31225;BME280;17847;31.524;74.366;2023-06-19T03:25:28;97710.94;;;33.52;54.49
31225;BME280;17847;31.524;74.366;2023-06-19T03:28:03;97709.72;;;33.26;54.75
31225;BME280;17847;31.524;74.366;2023-06-19T03:30:34;97705.34;;;33.67;54.86
31225;BME280;17847;31.524;74.366;2023-06-19T03:33:04;97705.22;;;33.64;54.20
31225;BME280;17847;31.524;74.366;2023-06-19T03:35:42;97699.03;;;33.90;53.07
31225;BME280;17847;31.524;74.366;2023-06-19T03:38:23;97710.63;;;34.06;53.16
31225;BME280;17847;31.524;74.366;2023-06-19T03:40:54;97707.91;;;34.32;52.77
31225;BME280;17847;31.524;74.366;2023-06-19T03:43:23;97714.34;;;34.43;52.47
31225;BME280;17847;31.524;74.366;2023-06-19T03:45:53;97711.59;;;34.43;51.04
31225;BME280;17847;31.524;74.366;2023-06-19T03:48:22;97716.06;;;34.55;53.10
31225;BME280;17847;31.524;74.366;2023-06-19T03:50:51;97719.38;;;34.38;52.95
31225;BME280;17847;31.524;74.366;2023-06-19T03:53:22;97720.09;;;34.64;52.11
31225;BME280;17847;31.524;74.366;2023-06-19T03:55:51;97719.91;;;34.80;53.03
31225;BME280;17847;31.524;74.366;2023-06-19T03:58:23;97716.19;;;34.09;51.61
31225;BME280;17847;31.524;74.366;2023-06-19T04:00:52;97722.19;;;34.75;53.33
31225;BME280;17847;31.524;74.366;2023-06-19T04:03:22;97716.47;;;34.87;51.97
31225;BME280;17847;31.524;74.366;2023-06-19T04:05:52;97721.06;;;35.12;50.06
31225;BME280;17847;31.524;74.366;2023-06-19T04:08:21;97717.59;;;34.82;52.83
31225;BME280;17847;31.524;74.366;2023-06-19T04:10:51;97719.16;;;34.53;53.11
31225;BME280;17847;31.524;74.366;2023-06-19T04:13:20;97712.97;;;34.60;51.50
31225;BME280;17847;31.524;74.366;2023-06-19T04:15:51;97718.88;;;34.06;51.65
31225;BME280;17847;31.524;74.366;2023-06-19T04:18:21;97716.63;;;34.38;51.89
31225;BME280;17847;31.524;74.366;2023-06-19T04:20:54;97714.81;;;34.52;53.79
31225;BME280;17847;31.524;74.366;2023-06-19T04:23:28;97711.38;;;34.89;54.79
31225;BME280;17847;31.524;74.366;2023-06-19T04:25:57;97713.03;;;34.97;51.67
31225;BME280;17847;31.524;74.366;2023-06-19T04:28:26;97722.41;;;34.92;52.23
31225;BME280;17847;31.524;74.366;2023-06-19T04:30:56;97726.41;;;34.65;52.59
31225;BME280;17847;31.524;74.366;2023-06-19T04:33:28;97726.59;;;34.79;53.16
31225;BME280;17847;31.524;74.366;2023-06-19T04:35:58;97726.16;;;35.10;51.24
31225;BME280;17847;31.524;74.366;2023-06-19T04:38:27;97723.22;;;35.26;51.11
31225;BME280;17847;31.524;74.366;2023-06-19T04:40:56;97721.44;;;35.11;51.60
31225;BME280;17847;31.524;74.366;2023-06-19T04:43:26;97722.16;;;35.41;52.53
31225;BME280;17847;31.524;74.366;2023-06-19T04:45:56;97715.97;;;35.51;50.85
31225;BME280;17847;31.524;74.366;2023-06-19T04:48:25;97714.31;;;35.43;48.72
31225;BME280;17847;31.524;74.366;2023-06-19T04:50:56;97707.94;;;34.99;49.53
31225;BME280;17847;31.524;74.366;2023-06-19T04:53:25;97695.44;;;35.45;51.92
31225;BME280;17847;31.524;74.366;2023-06-19T04:55:54;97693.78;;;35.81;48.22
31225;BME280;17847;31.524;74.366;2023-06-19T04:58:26;97687.44;;;36.32;49.09
31225;BME280;17847;31.524;74.366;2023-06-19T05:00:56;97692.34;;;35.50;49.66
31225;BME280;17847;31.524;74.366;2023-06-19T05:03:25;97683.56;;;35.82;50.83
31225;BME280;17847;31.524;74.366;2023-06-19T05:05:55;97687.50;;;35.37;49.30
31225;BME280;17847;31.524;74.366;2023-06-19T05:08:25;97683.72;;;35.55;48.97
31225;BME280;17847;31.524;74.366;2023-06-19T05:10:54;97694.28;;;35.46;48.76
31225;BME280;17847;31.524;74.366;2023-06-19T05:13:25;97682.44;;;35.90;47.43
31225;BME280;17847;31.524;74.366;2023-06-19T05:15:55;97680.31;;;36.24;49.63
31225;BME280;17847;31.524;74.366;2023-06-19T05:18:25;97690.94;;;36.22;50.39
31225;BME280;17847;31.524;74.366;2023-06-19T05:20:55;97689.91;;;36.55;48.01
31225;BME280;17847;31.524;74.366;2023-06-19T05:23:25;97689.66;;;36.88;46.78
31225;BME280;17847;31.524;74.366;2023-06-19T05:25:54;97692.66;;;36.51;45.76
31225;BME280;17847;31.524;74.366;2023-06-19T05:28:24;97678.34;;;36.24;46.17
31225;BME280;17847;31.524;74.366;2023-06-19T05:30:56;97678.19;;;36.82;47.27
31225;BME280;17847;31.524;74.366;2023-06-19T05:33:25;97682.81;;;36.54;47.39
31225;BME280;17847;31.524;74.366;2023-06-19T05:35:55;97685.75;;;37.03;46.64
31225;BME280;17847;31.524;74.366;2023-06-19T05:38:25;97679.06;;;37.04;44.47
31225;BME280;17847;31.524;74.366;2023-06-19T05:40:57;97677.44;;;36.82;43.37
31225;BME280;17847;31.524;74.366;2023-06-19T05:43:27;97675.06;;;36.87;46.63
31225;BME280;17847;31.524;74.366;2023-06-19T05:45:57;97672.72;;;37.00;45.35
31225;BME280;17847;31.524;74.366;2023-06-19T05:48:28;97658.97;;;37.18;46.80
31225;BME280;17847;31.524;74.366;2023-06-19T05:50:57;97667.13;;;36.68;45.18
31225;BME280;17847;31.524;74.366;2023-06-19T05:53:27;97669.34;;;36.38;46.02
31225;BME280;17847;31.524;74.366;2023-06-19T05:55:56;97674.97;;;36.59;46.49
31225;BME280;17847;31.524;74.366;2023-06-19T05:58:27;97666.28;;;36.61;49.07
31225;BME280;17847;31.524;74.366;2023-06-19T06:00:56;97677.75;;;36.59;47.88
31225;BME280;17847;31.524;74.366;2023-06-19T06:03:28;97679.44;;;36.99;49.46
31225;BME280;17847;31.524;74.366;2023-06-19T06:05:59;97684.44;;;36.62;46.68
31225;BME280;17847;31.524;74.366;2023-06-19T06:08:32;97682.16;;;36.81;46.57
31225;BME280;17847;31.524;74.366;2023-06-19T06:11:01;97685.19;;;36.59;46.53
31225;BME280;17847;31.524;74.366;2023-06-19T06:13:31;97679.25;;;36.50;45.15
31225;BME280;17847;31.524;74.366;2023-06-19T06:16:00;97680.56;;;36.87;48.19
31225;BME280;17847;31.524;74.366;2023-06-19T06:18:30;97676.25;;;36.97;47.68
31225;BME280;17847;31.524;74.366;2023-06-19T06:20:59;97675.84;;;36.77;47.65
31225;BME280;17847;31.524;74.366;2023-06-19T06:23:29;97669.38;;;36.48;47.35
31225;BME280;17847;31.524;74.366;2023-06-19T06:25:58;97672.50;;;36.43;48.73
31225;BME280;17847;31.524;74.366;2023-06-19T06:28:31;97667.94;;;36.72;48.36
31225;BME280;17847;31.524;74.366;2023-06-19T06:31:00;97660.81;;;36.64;48.01
31225;BME280;17847;31.524;74.366;2023-06-19T06:33:30;97658.69;;;36.33;47.12
31225;BME280;17847;31.524;74.366;2023-06-19T06:35:59;97660.41;;;36.62;47.08
31225;BME280;17847;31.524;74.366;2023-06-19T06:38:29;97653.75;;;36.77;47.97
31225;BME280;17847;31.524;74.366;2023-06-19T06:40:59;97646.69;;;36.94;49.27
31225;BME280;17847;31.524;74.366;2023-06-19T06:43:28;97643.91;;;37.05;52.34
31225;BME280;17847;31.524;74.366;2023-06-19T06:45:58;97636.44;;;37.05;49.43
31225;BME280;17847;31.524;74.366;2023-06-19T06:48:28;97647.91;;;37.11;47.80
31225;BME280;17847;31.524;74.366;2023-06-19T06:50:59;97651.47;;;37.15;47.41
31225;BME280;17847;31.524;74.366;2023-06-19T06:53:30;97644.72;;;36.98;47.61
31225;BME280;17847;31.524;74.366;2023-06-19T06:56:02;97647.16;;;37.21;46.73
31225;BME280;17847;31.524;74.366;2023-06-19T06:58:31;97640.75;;;36.92;46.18
31225;BME280;17847;31.524;74.366;2023-06-19T07:01:00;97629.31;;;36.94;46.12
31225;BME280;17847;31.524;74.366;2023-06-19T07:03:30;97626.19;;;36.99;47.18
31225;BME280;17847;31.524;74.366;2023-06-19T07:06:02;97623.78;;;36.79;46.50
31225;BME280;17847;31.524;74.366;2023-06-19T07:08:32;97628.78;;;36.53;47.04
31225;BME280;17847;31.524;74.366;2023-06-19T07:11:01;97631.69;;;37.02;50.23
31225;BME280;17847;31.524;74.366;2023-06-19T07:13:30;97620.25;;;37.00;47.97
31225;BME280;17847;31.524;74.366;2023-06-19T07:16:00;97617.53;;;37.07;47.55
31225;BME280;17847;31.524;74.366;2023-06-19T07:18:30;97616.75;;;37.10;47.21
31225;BME280;17847;31.524;74.366;2023-06-19T07:20:59;97606.06;;;37.05;48.48
31225;BME280;17847;31.524;74.366;2023-06-19T07:23:28;97612.75;;;36.90;49.09
31225;BME280;17847;31.524;74.366;2023-06-19T07:25:58;97605.22;;;36.62;47.79
31225;BME280;17847;31.524;74.366;2023-06-19T07:28:27;97597.75;;;36.77;48.88
31225;BME280;17847;31.524;74.366;2023-06-19T07:30:57;97590.69;;;36.94;47.84
31225;BME280;17847;31.524;74.366;2023-06-19T07:33:26;97587.97;;;37.22;50.00
31225;BME280;17847;31.524;74.366;2023-06-19T07:35:56;97583.63;;;37.24;47.65
31225;BME280;17847;31.524;74.366;2023-06-19T07:38:26;97584.38;;;37.32;47.59
31225;BME280;17847;31.524;74.366;2023-06-19T07:40:55;97589.91;;;37.11;47.08
31225;BME280;17847;31.524;74.366;2023-06-19T07:43:24;97574.13;;;37.29;50.06
31225;BME280;17847;31.524;74.366;2023-06-19T07:45:54;97578.88;;;37.32;46.66
31225;BME280;17847;31.524;74.366;2023-06-19T07:48:23;97575.31;;;37.00;45.81
31225;BME280;17847;31.524;74.366;2023-06-19T07:50:55;97574.91;;;37.01;46.68
31225;BME280;17847;31.524;74.366;2023-06-19T07:53:25;97567.03;;;37.07;48.16
31225;BME280;17847;31.524;74.366;2023-06-19T07:55:54;97553.25;;;37.07;47.50
31225;BME280;17847;31.524;74.366;2023-06-19T07:58:24;97557.53;;;37.36;49.13
31225;BME280;17847;31.524;74.366;2023-06-19T08:00:54;97542.16;;;37.39;46.51
31225;BME280;17847;31.524;74.366;2023-06-19T08:03:23;97537.44;;;37.11;48.45
31225;BME280;17847;31.524;74.366;2023-06-19T08:05:53;97540.19;;;36.93;47.68
31225;BME280;17847;31.524;74.366;2023-06-19T08:08:22;97532.31;;;36.81;48.32
31225;BME280;17847;31.524;74.366;2023-06-19T08:10:52;97533.09;;;36.81;46.36
31225;BME280;17847;31.524;74.366;2023-06-19T08:13:21;97527.19;;;36.90;46.86
31225;BME280;17847;31.524;74.366;2023-06-19T08:15:51;97518.91;;;37.18;48.18
31225;BME280;17847;31.524;74.366;2023-06-19T08:18:20;97525.22;;;37.15;46.47
31225;BME280;17847;31.524;74.366;2023-06-19T08:20:50;97518.91;;;37.04;47.32
31225;BME280;17847;31.524;74.366;2023-06-19T08:23:19;97519.66;;;37.01;47.96
31225;BME280;17847;31.524;74.366;2023-06-19T08:25:49;97506.28;;;37.00;47.52
31225;BME280;17847;31.524;74.366;2023-06-19T08:28:20;97509.81;;;37.14;49.57
31225;BME280;17847;31.524;74.366;2023-06-19T08:30:49;97512.19;;;37.19;50.58
31225;BME280;17847;31.524;74.366;2023-06-19T08:33:19;97492.88;;;36.84;46.47
31225;BME280;17847;31.524;74.366;2023-06-19T08:35:49;97493.25;;;36.93;48.24
31225;BME280;17847;31.524;74.366;2023-06-19T08:38:18;97491.69;;;36.78;47.19
31225;BME280;17847;31.524;74.366;2023-06-19T08:40:48;97494.03;;;36.83;49.67
31225;BME280;17847;31.524;74.366;2023-06-19T08:43:19;97482.59;;;36.74;49.07
31225;BME280;17847;31.524;74.366;2023-06-19T08:46:10;97476.28;;;36.56;49.41
31225;BME280;17847;31.524;74.366;2023-06-19T08:48:41;97479.44;;;36.51;50.89
31225;BME280;17847;31.524;74.366;2023-06-19T08:51:12;97480.19;;;36.40;47.32
31225;BME280;17847;31.524;74.366;2023-06-19T08:53:47;97480.16;;;36.30;48.88
31225;BME280;17847;31.524;74.366;2023-06-19T08:56:19;97469.94;;;36.30;49.52
31225;BME280;17847;31.524;74.366;2023-06-19T08:58:49;97471.44;;;36.10;48.96
31225;BME280;17847;31.524;74.366;2023-06-19T09:01:19;97469.56;;;36.28;52.22
31225;BME280;17847;31.524;74.366;2023-06-19T09:03:49;97467.56;;;36.39;52.88
31225;BME280;17847;31.524;74.366;2023-06-19T09:06:21;97460.09;;;36.43;48.34
31225;BME280;17847;31.524;74.366;2023-06-19T09:08:59;97456.56;;;36.54;49.16
31225;BME280;17847;31.524;74.366;2023-06-19T09:11:30;97447.91;;;36.62;48.61
31225;BME280;17847;31.524;74.366;2023-06-19T09:14:00;97443.97;;;36.67;47.97
31225;BME280;17847;31.524;74.366;2023-06-19T09:16:40;97440.81;;;36.75;47.82
31225;BME280;17847;31.524;74.366;2023-06-19T09:19:10;97434.91;;;36.77;47.90
31225;BME280;17847;31.524;74.366;2023-06-19T09:21:40;97435.69;;;36.81;46.47
31225;BME280;17847;31.524;74.366;2023-06-19T09:24:09;97431.75;;;36.82;47.24
31225;BME280;17847;31.524;74.366;2023-06-19T09:26:39;97431.75;;;36.85;46.79
31225;BME280;17847;31.524;74.366;2023-06-19T09:29:15;97421.09;;;36.84;47.84
31225;BME280;17847;31.524;74.366;2023-06-19T09:31:48;97419.13;;;36.70;47.11
31225;BME280;17847;31.524;74.366;2023-06-19T09:34:18;97416.41;;;36.63;47.31
31225;BME280;17847;31.524;74.366;2023-06-19T09:36:50;97417.13;;;36.57;47.97
31225;BME280;17847;31.524;74.366;2023-06-19T09:39:20;97412.81;;;36.45;47.94
31225;BME280;17847;31.524;74.366;2023-06-19T09:41:53;97410.81;;;36.56;48.68
31225;BME280;17847;31.524;74.366;2023-06-19T09:44:23;97409.28;;;36.59;48.88
31225;BME280;17847;31.524;74.366;2023-06-19T09:46:55;97398.25;;;36.55;49.41
31225;BME280;17847;31.524;74.366;2023-06-19T09:49:28;97399.00;;;36.48;48.17
31225;BME280;17847;31.524;74.366;2023-06-19T09:52:01;97390.75;;;36.38;48.22
31225;BME280;17847;31.524;74.366;2023-06-19T09:54:31;97395.88;;;36.46;50.48
31225;BME280;17847;31.524;74.366;2023-06-19T09:57:01;97400.19;;;36.44;50.56
31225;BME280;17847;31.524;74.366;2023-06-19T09:59:32;97389.56;;;36.42;48.67
31225;BME280;17847;31.524;74.366;2023-06-19T10:02:01;97389.97;;;36.41;50.54
31225;BME280;17847;31.524;74.366;2023-06-19T10:04:45;97393.50;;;36.27;49.09
31225;BME280;17847;31.524;74.366;2023-06-19T10:07:16;97391.13;;;36.22;49.70
31225;BME280;17847;31.524;74.366;2023-06-19T10:10:05;97384.03;;;36.21;49.06
31225;BME280;17847;31.524;74.366;2023-06-19T10:15:13;97379.66;;;36.06;48.29
31225;BME280;17847;31.524;74.366;2023-06-19T10:17:49;97374.16;;;36.02;48.25
31225;BME280;17847;31.524;74.366;2023-06-19T10:22:58;97367.81;;;35.98;48.82
31225;BME280;17847;31.524;74.366;2023-06-19T10:25:33;97361.16;;;35.92;50.50
31225;BME280;17847;31.524;74.366;2023-06-19T10:28:06;97360.72;;;35.94;49.74
31225;BME280;17847;31.524;74.366;2023-06-19T10:30:45;97359.59;;;36.02;49.30
31225;BME280;17847;31.524;74.366;2023-06-19T10:33:24;97358.78;;;36.09;49.56
31225;BME280;17847;31.524;74.366;2023-06-19T10:35:54;97358.78;;;36.05;50.02
31225;BME280;17847;31.524;74.366;2023-06-19T10:38:23;97345.38;;;36.03;51.16
31225;BME280;17847;31.524;74.366;2023-06-19T10:40:53;97349.72;;;36.04;51.53
31225;BME280;17847;31.524;74.366;2023-06-19T10:43:23;97354.88;;;36.02;48.53
31225;BME280;17847;31.524;74.366;2023-06-19T10:45:57;97350.53;;;36.05;47.20
31225;BME280;17847;31.524;74.366;2023-06-19T10:48:28;97350.13;;;36.10;49.42
31225;BME280;17847;31.524;74.366;2023-06-19T10:50:59;97347.78;;;36.12;47.45
31225;BME280;17847;31.524;74.366;2023-06-19T10:53:32;97345.44;;;36.14;46.98
31225;BME280;17847;31.524;74.366;2023-06-19T10:56:03;97339.53;;;36.16;47.46
31225;BME280;17847;31.524;74.366;2023-06-19T10:58:33;97334.78;;;36.13;46.45
31225;BME280;17847;31.524;74.366;2023-06-19T11:01:02;97335.56;;;36.10;46.36
31225;BME280;17847;31.524;74.366;2023-06-19T11:03:33;97326.91;;;36.11;46.24
31225;BME280;17847;31.524;74.366;2023-06-19T11:06:03;97323.34;;;36.07;47.21
31225;BME280;17847;31.524;74.366;2023-06-19T11:08:34;97324.91;;;36.04;47.89
31225;BME280;17847;31.524;74.366;2023-06-19T11:11:03;97313.09;;;36.04;45.91
31225;BME280;17847;31.524;74.366;2023-06-19T11:13:33;97318.63;;;36.00;48.11
31225;BME280;17847;31.524;74.366;2023-06-19T11:16:03;97314.69;;;36.01;48.15
31225;BME280;17847;31.524;74.366;2023-06-19T11:18:33;97320.22;;;35.98;46.69
31225;BME280;17847;31.524;74.366;2023-06-19T11:21:03;97315.47;;;35.91;48.22
31225;BME280;17847;31.524;74.366;2023-06-19T11:23:32;97315.06;;;35.93;46.67
31225;BME280;17847;31.524;74.366;2023-06-19T11:26:06;97308.38;;;35.90;46.17
31225;BME280;17847;31.524;74.366;2023-06-19T11:28:36;97309.53;;;35.89;47.68
31225;BME280;17847;31.524;74.366;2023-06-19T11:31:09;97314.25;;;35.82;46.24
31225;BME280;17847;31.524;74.366;2023-06-19T11:33:39;97306.00;;;35.75;46.77
31225;BME280;17847;31.524;74.366;2023-06-19T11:36:08;97298.50;;;35.72;47.22
31225;BME280;17847;31.524;74.366;2023-06-19T11:38:38;97294.13;;;35.64;45.44
31225;BME280;17847;31.524;74.366;2023-06-19T11:41:10;97289.41;;;35.60;44.87
31225;BME280;17847;31.524;74.366;2023-06-19T11:43:39;97285.06;;;35.59;46.85
31225;BME280;17847;31.524;74.366;2023-06-19T11:46:10;97289.41;;;35.57;48.25
31225;BME280;17847;31.524;74.366;2023-06-19T11:48:40;97287.81;;;35.52;47.90
31225;BME280;17847;31.524;74.366;2023-06-19T11:51:19;97287.41;;;35.50;49.02
31225;BME280;17847;31.524;74.366;2023-06-19T11:53:49;97284.66;;;35.47;50.46
31225;BME280;17847;31.524;74.366;2023-06-19T11:56:18;97272.06;;;35.42;49.81
31225;BME280;17847;31.524;74.366;2023-06-19T11:58:48;97274.03;;;35.38;50.34
31225;BME280;17847;31.524;74.366;2023-06-19T12:01:21;97279.53;;;35.35;50.60
31225;BME280;17847;31.524;74.366;2023-06-19T12:03:50;97280.69;;;35.30;52.76
31225;BME280;17847;31.524;74.366;2023-06-19T12:06:21;97285.78;;;35.28;53.41
31225;BME280;17847;31.524;74.366;2023-06-19T12:08:50;97276.34;;;35.22;51.93
31225;BME280;17847;31.524;74.366;2023-06-19T12:11:20;97278.31;;;35.22;52.14
31225;BME280;17847;31.524;74.366;2023-06-19T12:13:49;97276.31;;;35.19;52.71
31225;BME280;17847;31.524;74.366;2023-06-19T12:16:19;97274.34;;;35.15;52.99
31225;BME280;17847;31.524;74.366;2023-06-19T12:18:49;97281.78;;;35.15;52.92
31225;BME280;17847;31.524;74.366;2023-06-19T12:21:19;97286.13;;;35.12;54.64
31225;BME280;17847;31.524;74.366;2023-06-19T12:24:12;97282.94;;;35.07;53.99
31225;BME280;17847;31.524;74.366;2023-06-19T12:26:43;97282.56;;;35.05;53.65
31225;BME280;17847;31.524;74.366;2023-06-19T12:29:12;97273.88;;;34.99;55.01
31225;BME280;17847;31.524;74.366;2023-06-19T12:31:43;97275.41;;;34.97;55.03
31225;BME280;17847;31.524;74.366;2023-06-19T12:34:14;97271.13;;;34.96;55.81
31225;BME280;17847;31.524;74.366;2023-06-19T12:36:57;97274.22;;;34.91;55.81
31225;BME280;17847;31.524;74.366;2023-06-19T12:39:26;97267.16;;;34.90;54.42
31225;BME280;17847;31.524;74.366;2023-06-19T12:41:56;97271.06;;;34.89;54.54
31225;BME280;17847;31.524;74.366;2023-06-19T12:44:25;97269.09;;;34.89;54.12
31225;BME280;17847;31.524;74.366;2023-06-19T12:46:55;97267.13;;;34.83;54.40
31225;BME280;17847;31.524;74.366;2023-06-19T12:49:27;97271.84;;;34.79;55.29
31225;BME280;17847;31.524;74.366;2023-06-19T12:51:56;97272.19;;;34.74;54.66
31225;BME280;17847;31.524;74.366;2023-06-19T12:54:26;97274.16;;;34.73;54.75
31225;BME280;17847;31.524;74.366;2023-06-19T12:56:57;97270.59;;;34.72;54.81
31225;BME280;17847;31.524;74.366;2023-06-19T12:59:26;97274.88;;;34.66;54.39
31225;BME280;17847;31.524;74.366;2023-06-19T13:01:55;97270.94;;;34.64;53.95
31225;BME280;17847;31.524;74.366;2023-06-19T13:04:26;97280.72;;;34.61;54.09
31225;BME280;17847;31.524;74.366;2023-06-19T13:06:55;97275.63;;;34.60;54.11
31225;BME280;17847;31.524;74.366;2023-06-19T13:09:25;97277.56;;;34.56;53.91
31225;BME280;17847;31.524;74.366;2023-06-19T13:11:54;97277.94;;;34.51;54.12
31225;BME280;17847;31.524;74.366;2023-06-19T13:14:24;97273.97;;;34.48;53.80